createdAt,value
2023-08-30T00:00:33.244Z,11.24
2023-08-30T00:02:22.383Z,11.04
2023-08-30T00:03:58.831Z,10.85
2023-08-30T00:05:31.737Z,10.01
2023-08-30T00:06:53.981Z,9.26
2023-08-30T00:08:30.941Z,8.89
2023-08-30T00:10:04.619Z,9.32
2023-08-30T00:11:28.519Z,9.23
2023-08-30T00:12:53.070Z,8.79
2023-08-30T00:14:33.736Z,8.42
2023-08-30T00:16:18.724Z,8.18
2023-08-30T00:18:15.988Z,7.98
2023-08-30T00:19:51.835Z,8.61
2023-08-30T00:21:25.178Z,8.32
2023-08-30T00:23:10.499Z,8.14
2023-08-30T00:24:55.983Z,9.28
2023-08-30T00:26:17.563Z,9.60
2023-08-30T00:27:54.936Z,9.41
2023-08-30T00:29:32.510Z,9.08
2023-08-30T00:31:08.467Z,8.57
2023-08-30T00:32:30.205Z,8.71
2023-08-30T00:34:03.969Z,9.02
2023-08-30T00:35:35.739Z,8.66
2023-08-30T00:37:08.011Z,8.63
2023-08-30T00:38:31.937Z,8.60
2023-08-30T00:40:08.112Z,9.44
2023-08-30T00:41:29.978Z,9.56
2023-08-30T00:43:11.002Z,9.87
2023-08-30T00:44:52.052Z,9.54
2023-08-30T00:46:27.494Z,9.06
2023-08-30T00:47:57.400Z,9.47
2023-08-30T00:49:42.388Z,9.96
2023-08-30T00:51:08.491Z,8.93
2023-08-30T00:52:44.349Z,8.26
2023-08-30T00:54:17.862Z,7.70
2023-08-30T00:55:54.065Z,7.07
2023-08-30T00:57:29.551Z,6.88
2023-08-30T00:59:14.508Z,6.47
2023-08-30T01:00:55.551Z,6.10
2023-08-30T01:02:31.461Z,5.33
2023-08-30T01:04:16.566Z,5.26
2023-08-30T01:05:48.838Z,5.05
2023-08-30T01:07:24.084Z,5.12
2023-08-30T01:09:01.544Z,4.98
2023-08-30T01:10:23.403Z,5.00
2023-08-30T01:12:08.460Z,5.08
2023-08-30T01:13:56.012Z,5.10
2023-08-30T01:15:33.583Z,5.49
2023-08-30T01:16:58.351Z,5.19
2023-08-30T01:18:43.311Z,5.57
2023-08-30T01:20:20.172Z,5.86
2023-08-30T01:22:05.311Z,5.94
2023-08-30T01:23:57.853Z,5.51
2023-08-30T01:25:42.940Z,5.53
2023-08-30T01:27:26.064Z,5.68
2023-08-30T01:29:11.066Z,5.92
2023-08-30T01:30:52.213Z,5.82
2023-08-30T01:32:27.567Z,6.21
2023-08-30T01:34:04.906Z,6.79
2023-08-30T01:35:38.452Z,6.61
2023-08-30T01:37:23.642Z,6.46
2023-08-30T01:39:13.212Z,6.53
2023-08-30T01:40:38.660Z,5.99
2023-08-30T01:42:12.377Z,6.13
2023-08-30T01:43:58.094Z,6.02
2023-08-30T01:45:52.040Z,5.21
2023-08-30T01:47:27.932Z,5.54
2023-08-30T01:49:03.553Z,6.07
2023-08-30T01:50:48.728Z,5.84
2023-08-30T01:52:29.253Z,5.61
2023-08-30T01:54:05.428Z,5.50
2023-08-30T01:55:51.926Z,5.05
2023-08-30T01:57:23.880Z,5.08
2023-08-30T01:59:07.026Z,4.59
2023-08-30T02:00:28.369Z,4.83
2023-08-30T02:02:13.544Z,5.25
2023-08-30T02:03:59.311Z,5.18
2023-08-30T02:05:44.105Z,5.03
2023-08-30T02:07:17.390Z,5.25
2023-08-30T02:09:12.050Z,5.67
2023-08-30T02:11:07.033Z,5.24
2023-08-30T02:12:49.126Z,5.08
2023-08-30T02:14:29.595Z,5.14
2023-08-30T02:16:03.431Z,5.45
2023-08-30T02:17:49.489Z,5.12
2023-08-30T02:19:22.938Z,5.11
2023-08-30T02:20:56.927Z,5.56
2023-08-30T02:22:44.826Z,5.68
2023-08-30T02:24:25.544Z,5.86
2023-08-30T02:26:11.154Z,6.22
2023-08-30T02:27:32.830Z,5.43
2023-08-30T02:29:17.584Z,5.36
2023-08-30T02:31:03.066Z,5.01
2023-08-30T02:32:58.028Z,5.34
2023-08-30T02:34:33.151Z,4.78
2023-08-30T02:36:09.075Z,5.22
2023-08-30T02:37:44.438Z,5.38
2023-08-30T02:39:15.626Z,5.22
2023-08-30T02:41:09.142Z,5.49
2023-08-30T02:42:44.644Z,5.37
2023-08-30T02:44:31.683Z,5.64
2023-08-30T02:46:05.362Z,6.07
2023-08-30T02:47:59.656Z,5.46
2023-08-30T02:49:33.054Z,5.75
2023-08-30T02:51:18.012Z,5.62
2023-08-30T02:54:55.876Z,6.53
2023-08-30T02:56:28.744Z,7.01
2023-08-30T02:57:53.322Z,6.61
2023-08-30T02:59:22.820Z,6.84
2023-08-30T03:01:08.498Z,6.40
2023-08-30T03:02:54.452Z,6.39
2023-08-30T03:04:27.813Z,6.43
2023-08-30T03:06:13.431Z,6.52
2023-08-30T03:07:57.010Z,6.59
2023-08-30T03:09:51.036Z,7.18
2023-08-30T03:11:36.663Z,7.87
2023-08-30T03:13:05.442Z,7.90
2023-08-30T03:14:59.019Z,7.48
2023-08-30T03:16:34.608Z,7.31
2023-08-30T03:18:08.468Z,7.90
2023-08-30T03:21:51.485Z,8.10
2023-08-30T03:23:36.660Z,8.60
2023-08-30T03:25:10.296Z,8.66
2023-08-30T03:26:42.169Z,8.70
2023-08-30T03:28:26.736Z,8.39
2023-08-30T03:30:08.581Z,8.95
2023-08-30T03:32:03.038Z,9.59
2023-08-30T03:33:48.207Z,8.55
2023-08-30T03:35:22.750Z,8.66
2023-08-30T03:37:01.919Z,9.59
2023-08-30T03:38:49.457Z,10.66
2023-08-30T03:40:30.114Z,11.70
2023-08-30T03:43:10.813Z,12.17
2023-08-30T03:44:12.600Z,12.66
2023-08-30T03:45:46.533Z,13.32
2023-08-30T03:47:33.628Z,12.62
2023-08-30T03:49:07.746Z,13.21
2023-08-30T03:50:50.073Z,12.79
2023-08-30T03:52:24.085Z,12.58
2023-08-30T03:53:57.825Z,13.90
2023-08-30T03:55:31.754Z,14.03
2023-08-30T03:57:14.180Z,14.53
2023-08-30T03:58:47.554Z,15.59
2023-08-30T04:00:20.713Z,16.91
2023-08-30T04:01:55.826Z,16.16
2023-08-30T04:03:29.285Z,16.74
2023-08-30T04:05:10.319Z,16.84
2023-08-30T04:06:55.821Z,16.99
2023-08-30T04:08:41.205Z,17.00
2023-08-30T04:10:25.959Z,17.67
2023-08-30T04:12:11.372Z,16.76
2023-08-30T04:13:47.339Z,16.95
2023-08-30T04:15:20.685Z,17.32
2023-08-30T04:17:08.992Z,18.62
2023-08-30T04:18:42.425Z,18.98
2023-08-30T04:20:15.622Z,18.75
2023-08-30T04:21:55.432Z,18.71
2023-08-30T04:23:30.786Z,17.59
2023-08-30T04:25:15.903Z,18.06
2023-08-30T04:26:56.910Z,17.53
2023-08-30T04:28:30.327Z,17.85
2023-08-30T04:30:15.863Z,19.14
2023-08-30T04:32:09.820Z,19.97
2023-08-30T04:34:04.387Z,19.57
2023-08-30T04:35:50.225Z,22.15
2023-08-30T04:37:35.373Z,22.31
2023-08-30T04:39:12.834Z,21.57
2023-08-30T04:40:57.797Z,23.02
2023-08-30T04:42:52.093Z,23.73
2023-08-30T04:44:18.580Z,22.19
2023-08-30T04:46:03.994Z,23.10
2023-08-30T04:47:48.940Z,23.24
2023-08-30T04:49:34.334Z,23.96
2023-08-30T04:51:08.027Z,25.10
2023-08-30T04:53:01.778Z,25.13
2023-08-30T04:54:43.010Z,25.59
2023-08-30T04:56:28.146Z,24.48
2023-08-30T04:58:13.475Z,25.58
2023-08-30T04:59:49.469Z,23.42
2023-08-30T05:01:18.739Z,23.36
2023-08-30T05:02:56.635Z,23.19
2023-08-30T05:04:37.710Z,22.87
2023-08-30T05:06:22.841Z,21.31
2023-08-30T05:07:59.285Z,23.31
2023-08-30T05:09:33.550Z,22.86
2023-08-30T05:11:21.272Z,22.25
2023-08-30T05:13:16.109Z,20.40
2023-08-30T05:14:49.627Z,20.65
2023-08-30T05:16:35.455Z,19.19
2023-08-30T05:18:11.883Z,19.39
2023-08-30T05:19:52.996Z,18.01
2023-08-30T05:21:28.851Z,19.36
2023-08-30T05:23:03.644Z,19.98
2023-08-30T05:24:25.385Z,20.78
2023-08-30T05:25:59.040Z,18.73
2023-08-30T05:27:32.853Z,20.88
2023-08-30T05:29:18.325Z,20.20
2023-08-30T05:30:42.630Z,19.81
2023-08-30T05:32:21.907Z,19.76
2023-08-30T05:34:02.279Z,19.25
2023-08-30T05:35:26.578Z,20.20
2023-08-30T05:37:45.514Z,18.92
2023-08-30T05:39:45.810Z,18.03
2023-08-30T05:41:07.673Z,19.70
2023-08-30T05:42:40.940Z,18.55
2023-08-30T05:44:05.584Z,18.41
2023-08-30T05:45:39.358Z,19.87
2023-08-30T05:47:27.574Z,18.80
2023-08-30T05:49:01.723Z,17.65
2023-08-30T05:50:42.913Z,17.08
2023-08-30T05:52:27.657Z,15.57
2023-08-30T05:54:03.585Z,16.48
2023-08-30T05:55:57.138Z,15.33
2023-08-30T05:57:18.643Z,15.80
2023-08-30T05:59:04.585Z,16.25
2023-08-30T06:00:39.059Z,17.68
2023-08-30T06:02:15.381Z,17.79
2023-08-30T06:03:46.914Z,16.41
2023-08-30T06:05:31.930Z,15.86
2023-08-30T06:07:05.749Z,14.42
2023-08-30T06:09:01.119Z,14.38
2023-08-30T06:10:46.697Z,14.50
2023-08-30T06:12:22.195Z,14.16
2023-08-30T06:13:51.906Z,13.51
2023-08-30T06:15:17.780Z,14.41
2023-08-30T06:16:51.657Z,13.98
2023-08-30T06:18:32.299Z,14.13
2023-08-30T06:20:17.653Z,13.51
2023-08-30T06:21:46.971Z,13.35
2023-08-30T06:23:31.599Z,12.73
2023-08-30T06:25:17.213Z,11.79
2023-08-30T06:27:04.680Z,12.50
2023-08-30T06:29:03.691Z,13.14
2023-08-30T06:30:34.400Z,12.12
2023-08-30T06:32:19.533Z,12.65
2023-08-30T06:33:55.485Z,12.84
2023-08-30T06:35:45.130Z,12.03
2023-08-30T06:37:25.799Z,12.54
2023-08-30T06:39:11.301Z,12.39
2023-08-30T06:41:01.950Z,12.19
2023-08-30T06:42:26.299Z,12.38
2023-08-30T06:44:11.621Z,12.71
2023-08-30T06:46:07.108Z,12.39
2023-08-30T06:47:38.902Z,12.64
2023-08-30T06:49:12.532Z,12.89
2023-08-30T06:50:46.551Z,12.97
2023-08-30T06:52:20.162Z,12.76
2023-08-30T06:54:05.435Z,12.26
2023-08-30T06:55:46.574Z,12.00
2023-08-30T06:57:40.421Z,12.00
2023-08-30T06:59:26.950Z,11.49
2023-08-30T07:01:12.199Z,12.12
2023-08-30T07:03:06.493Z,11.90
2023-08-30T07:04:47.344Z,12.69
2023-08-30T07:06:23.197Z,11.25
2023-08-30T07:07:57.193Z,10.99
2023-08-30T07:09:36.935Z,10.59
2023-08-30T07:11:23.636Z,10.97
2023-08-30T07:13:12.911Z,10.38
2023-08-30T07:17:09.513Z,9.43
2023-08-30T07:18:54.948Z,8.79
2023-08-30T07:20:40.179Z,9.20
2023-08-30T07:22:25.753Z,9.72
2023-08-30T07:24:10.941Z,9.15
2023-08-30T07:25:56.291Z,8.97
2023-08-30T07:27:29.605Z,8.82
2023-08-30T07:29:15.150Z,8.52
2023-08-30T07:30:44.254Z,8.61
2023-08-30T07:32:20.053Z,9.21
2023-08-30T07:34:05.823Z,9.27
2023-08-30T07:35:55.074Z,9.15
2023-08-30T07:37:21.929Z,8.57
2023-08-30T07:38:56.165Z,8.83
2023-08-30T07:40:29.355Z,8.09
2023-08-30T07:42:04.361Z,8.65
2023-08-30T07:43:46.505Z,7.72
2023-08-30T07:45:08.325Z,7.67
2023-08-30T07:46:57.642Z,6.91
2023-08-30T07:48:34.018Z,6.87
2023-08-30T07:50:09.747Z,7.98
2023-08-30T07:51:43.655Z,7.08
2023-08-30T07:53:07.899Z,6.24
2023-08-30T07:54:41.840Z,6.48
2023-08-30T07:56:26.946Z,6.58
2023-08-30T07:58:06.011Z,5.84
2023-08-30T07:59:53.468Z,5.92
2023-08-30T08:01:26.760Z,5.55
2023-08-30T08:03:00.370Z,5.53
2023-08-30T08:04:45.392Z,6.15
2023-08-30T08:06:30.104Z,6.28
2023-08-30T08:08:15.537Z,5.85
2023-08-30T08:10:06.106Z,6.40
2023-08-30T08:12:01.168Z,5.95
2023-08-30T08:13:50.500Z,5.95
2023-08-30T08:15:35.470Z,5.51
2023-08-30T08:17:09.504Z,6.35
2023-08-30T08:18:59.563Z,5.46
2023-08-30T08:20:40.532Z,5.98
2023-08-30T08:22:21.844Z,6.00
2023-08-30T08:23:53.785Z,6.05
2023-08-30T08:25:24.699Z,5.72
2023-08-30T08:27:09.794Z,5.67
2023-08-30T08:28:43.403Z,5.36
2023-08-30T08:30:28.575Z,5.08
2023-08-30T08:32:14.226Z,5.27
2023-08-30T08:33:57.417Z,5.07
2023-08-30T08:35:45.329Z,5.59
2023-08-30T08:37:18.862Z,4.96
2023-08-30T08:38:59.686Z,5.39
2023-08-30T08:40:43.413Z,5.68
2023-08-30T08:42:12.890Z,5.64
2023-08-30T08:43:37.683Z,5.70
2023-08-30T08:45:13.292Z,6.02
2023-08-30T08:46:39.480Z,6.04
2023-08-30T08:48:13.990Z,5.91
2023-08-30T08:49:59.649Z,6.10
2023-08-30T08:51:44.216Z,5.80
2023-08-30T08:53:28.936Z,6.10
2023-08-30T08:55:14.742Z,6.52
2023-08-30T08:56:51.337Z,6.34
2023-08-30T08:58:17.098Z,6.23
2023-08-30T09:00:07.267Z,5.69
2023-08-30T09:01:44.912Z,5.75
2023-08-30T09:03:39.178Z,5.96
2023-08-30T09:05:24.325Z,5.69
2023-08-30T09:07:10.836Z,6.42
2023-08-30T09:09:01.089Z,6.48
2023-08-30T09:10:50.548Z,6.46
2023-08-30T09:12:27.087Z,6.22
2023-08-30T09:14:01.084Z,5.95
2023-08-30T09:15:41.278Z,6.10
2023-08-30T09:17:03.272Z,6.07
2023-08-30T09:18:28.490Z,5.56
2023-08-30T09:20:04.529Z,4.92
2023-08-30T09:21:52.984Z,5.18
2023-08-30T09:23:38.446Z,5.24
2023-08-30T09:25:23.506Z,6.13
2023-08-30T09:26:57.223Z,5.98
2023-08-30T09:28:42.244Z,5.56
2023-08-30T09:30:06.569Z,5.36
2023-08-30T09:31:42.888Z,4.91
2023-08-30T09:33:04.885Z,4.98
2023-08-30T09:34:38.394Z,4.95
2023-08-30T09:36:07.570Z,5.02
2023-08-30T09:37:53.053Z,5.05
2023-08-30T09:39:26.846Z,4.71
2023-08-30T09:40:49.329Z,5.53
2023-08-30T09:42:11.253Z,4.90
2023-08-30T09:43:44.923Z,4.96
2023-08-30T09:45:18.124Z,5.15
2023-08-30T09:46:52.054Z,4.78
2023-08-30T09:48:38.132Z,4.85
2023-08-30T09:50:00.312Z,4.59
2023-08-30T09:51:37.239Z,4.60
2023-08-30T09:52:59.563Z,5.21
2023-08-30T09:54:46.812Z,5.56
2023-08-30T09:56:31.981Z,5.29
2023-08-30T09:58:17.353Z,5.20
2023-08-30T10:00:02.871Z,4.65
2023-08-30T10:01:37.773Z,4.47
2023-08-30T10:04:55.756Z,4.34
2023-08-30T10:06:31.482Z,4.21
2023-08-30T10:07:55.826Z,4.65
2023-08-30T10:20:16.603Z,4.18
2023-08-30T10:21:50.057Z,4.44
2023-08-30T10:23:22.676Z,4.26
2023-08-30T10:26:46.830Z,4.79
2023-08-30T10:28:30.202Z,4.05
2023-08-30T10:30:16.766Z,3.62
2023-08-30T10:31:50.205Z,3.33
2023-08-30T10:33:34.663Z,2.81
2023-08-30T10:35:16.472Z,3.15
2023-08-30T10:36:58.393Z,3.17
2023-08-30T10:38:39.142Z,3.34
2023-08-30T10:40:24.869Z,3.30
2023-08-30T10:42:10.511Z,3.41
2023-08-30T10:43:48.995Z,4.13
2023-08-30T10:45:35.264Z,3.55
2023-08-30T10:47:25.798Z,3.48
2023-08-30T10:49:11.057Z,2.94
2023-08-30T10:50:34.962Z,2.98
2023-08-30T10:52:30.193Z,3.27
2023-08-30T10:54:16.703Z,3.75
2023-08-30T10:56:01.723Z,3.64
2023-08-30T10:57:50.831Z,3.63
2023-08-30T10:59:27.282Z,3.36
2023-08-30T11:01:04.101Z,3.14
2023-08-30T11:02:38.191Z,3.65
2023-08-30T11:04:15.523Z,3.25
2023-08-30T11:05:57.844Z,3.45
2023-08-30T11:07:27.314Z,3.68
2023-08-30T11:09:00.697Z,3.67
2023-08-30T11:10:46.047Z,3.66
2023-08-30T11:12:32.239Z,3.33
2023-08-30T11:14:06.869Z,3.61
2023-08-30T11:15:28.998Z,3.38
2023-08-30T11:17:16.616Z,3.56
2023-08-30T11:18:39.788Z,3.65
2023-08-30T11:20:29.535Z,3.52
2023-08-30T11:22:15.948Z,4.18
2023-08-30T11:23:55.249Z,4.15
2023-08-30T11:25:24.686Z,4.19
2023-08-30T11:26:58.823Z,4.25
2023-08-30T11:28:28.323Z,4.43
2023-08-30T11:30:09.342Z,4.31
2023-08-30T11:31:54.479Z,4.29
2023-08-30T11:33:19.454Z,4.67
2023-08-30T11:34:55.669Z,4.51
2023-08-30T11:36:29.383Z,4.72
2023-08-30T11:38:10.824Z,4.67
2023-08-30T11:39:40.306Z,4.75
2023-08-30T11:41:23.786Z,4.64
2023-08-30T11:42:55.326Z,5.00
2023-08-30T11:44:28.684Z,5.15
2023-08-30T11:46:14.314Z,5.01
2023-08-30T11:47:55.016Z,4.94
2023-08-30T11:49:41.015Z,5.43
2023-08-30T11:51:27.233Z,5.60
2023-08-30T11:52:50.606Z,5.85
2023-08-30T11:54:27.032Z,5.66
2023-08-30T11:56:12.741Z,5.08
2023-08-30T11:57:41.816Z,4.70
2023-08-30T11:59:18.392Z,4.92
2023-08-30T12:01:03.472Z,5.34
2023-08-30T12:02:37.121Z,4.59
2023-08-30T12:04:07.116Z,4.39
2023-08-30T12:05:46.061Z,4.53
2023-08-30T12:07:26.942Z,4.64
2023-08-30T12:08:48.893Z,4.93
2023-08-30T12:10:30.333Z,4.85
2023-08-30T12:12:16.052Z,4.51
2023-08-30T12:13:49.943Z,5.10
2023-08-30T12:15:35.256Z,5.07
2023-08-30T12:17:24.620Z,4.45
2023-08-30T12:18:48.789Z,4.50
2023-08-30T12:20:24.761Z,4.90
2023-08-30T12:21:46.571Z,4.84
2023-08-30T12:23:22.863Z,5.20
2023-08-30T12:25:07.966Z,4.95
2023-08-30T12:26:41.297Z,4.60
2023-08-30T12:28:26.821Z,4.61
2023-08-30T12:29:48.443Z,5.47
2023-08-30T12:31:29.786Z,5.16
2023-08-30T12:33:17.553Z,5.15
2023-08-30T12:34:52.955Z,5.16
2023-08-30T12:36:26.834Z,5.27
2023-08-30T12:38:00.549Z,5.20
2023-08-30T12:39:36.622Z,5.55
2023-08-30T12:41:14.183Z,5.84
2023-08-30T12:42:47.427Z,5.68
2023-08-30T12:44:17.039Z,5.81
2023-08-30T12:45:50.116Z,5.64
2023-08-30T12:47:24.000Z,5.17
2023-08-30T12:48:59.405Z,5.66
2023-08-30T12:50:33.219Z,5.87
2023-08-30T12:52:07.186Z,5.38
2023-08-30T12:53:40.100Z,6.05
2023-08-30T12:55:29.490Z,5.97
2023-08-30T12:57:05.615Z,5.47
2023-08-30T12:59:17.708Z,5.43
2023-08-30T13:00:36.043Z,5.72
2023-08-30T13:02:10.061Z,5.18
2023-08-30T13:03:55.153Z,5.36
2023-08-30T13:05:42.470Z,5.22
2023-08-30T13:07:04.885Z,5.35
2023-08-30T13:08:28.590Z,5.66
2023-08-30T13:10:04.792Z,5.56
2023-08-30T13:11:39.132Z,5.49
2023-08-30T13:13:34.228Z,5.76
2023-08-30T13:15:08.453Z,5.66
2023-08-30T13:16:44.160Z,5.61
2023-08-30T13:18:20.132Z,5.02
2023-08-30T13:19:53.379Z,5.65
2023-08-30T13:21:41.597Z,5.70
2023-08-30T13:23:15.781Z,6.17
2023-08-30T13:24:51.727Z,5.61
2023-08-30T13:26:16.236Z,5.40
2023-08-30T13:27:51.970Z,5.32
2023-08-30T13:29:23.643Z,4.90
2023-08-30T13:31:08.893Z,5.03
2023-08-30T13:32:42.154Z,4.71
2023-08-30T13:34:06.884Z,5.64
2023-08-30T13:35:40.148Z,5.57
2023-08-30T13:37:35.233Z,5.60
2023-08-30T13:39:20.729Z,5.94
2023-08-30T13:40:56.633Z,5.40
2023-08-30T13:42:32.449Z,5.10
2023-08-30T13:44:08.202Z,5.42
2023-08-30T13:45:53.099Z,5.50
2023-08-30T13:47:26.879Z,5.05
2023-08-30T13:49:12.205Z,5.12
2023-08-30T13:50:47.934Z,4.96
2023-08-30T13:52:12.676Z,5.49
2023-08-30T13:53:57.439Z,5.22
2023-08-30T13:55:50.771Z,6.04
2023-08-30T13:57:22.691Z,5.98
2023-08-30T13:59:03.650Z,5.78
2023-08-30T14:00:48.441Z,5.77
2023-08-30T14:02:36.522Z,6.80
2023-08-30T14:04:10.387Z,5.94
2023-08-30T14:05:43.737Z,6.37
2023-08-30T14:07:17.803Z,6.53
2023-08-30T14:08:58.429Z,7.08
2023-08-30T14:10:30.148Z,6.56
2023-08-30T14:12:23.651Z,6.70
2023-08-30T14:14:08.584Z,6.72
2023-08-30T14:15:53.512Z,7.01
2023-08-30T14:17:27.244Z,6.76
2023-08-30T14:19:13.254Z,6.55
2023-08-30T14:20:58.298Z,6.91
2023-08-30T14:22:20.900Z,6.19
2023-08-30T14:24:06.072Z,6.74
2023-08-30T14:25:27.563Z,6.10
2023-08-30T14:27:01.589Z,5.61
2023-08-30T14:28:42.226Z,6.13
2023-08-30T14:30:04.620Z,5.89
2023-08-30T14:31:40.284Z,6.41
2023-08-30T14:33:11.992Z,6.17
2023-08-30T14:34:40.831Z,6.40
2023-08-30T14:36:14.497Z,6.21
2023-08-30T14:37:46.355Z,6.32
2023-08-30T14:39:22.518Z,6.87
2023-08-30T14:40:55.704Z,6.33
2023-08-30T14:42:28.689Z,6.17
2023-08-30T14:44:09.956Z,6.10
2023-08-30T14:45:34.232Z,6.13
2023-08-30T14:47:08.760Z,6.17
2023-08-30T14:48:33.031Z,6.72
2023-08-30T14:49:54.664Z,6.48
2023-08-30T14:51:21.450Z,6.25
2023-08-30T14:52:56.147Z,6.03
2023-08-30T14:54:25.565Z,6.37
2023-08-30T14:55:47.338Z,6.00
2023-08-30T14:57:09.639Z,6.15
2023-08-30T14:58:54.365Z,6.03
2023-08-30T15:00:30.593Z,6.45
2023-08-30T15:02:03.981Z,6.57
2023-08-30T15:03:40.020Z,6.39
2023-08-30T15:05:11.213Z,6.59
2023-08-30T15:06:46.640Z,6.20
2023-08-30T15:08:11.486Z,5.99
2023-08-30T15:09:35.936Z,6.29
2023-08-30T15:11:12.366Z,6.13
2023-08-30T15:12:36.656Z,7.06
2023-08-30T15:14:06.159Z,6.59
2023-08-30T15:15:50.905Z,7.45
2023-08-30T15:17:46.242Z,7.72
2023-08-30T15:19:31.467Z,7.31
2023-08-30T15:21:12.880Z,7.22
2023-08-30T15:22:46.408Z,7.06
2023-08-30T15:24:31.744Z,7.27
2023-08-30T15:26:18.061Z,6.94
2023-08-30T15:28:02.895Z,6.99
2023-08-30T15:29:36.503Z,6.90
2023-08-30T15:31:22.213Z,7.05
2023-08-30T15:32:58.181Z,6.93
2023-08-30T15:34:31.898Z,6.98
2023-08-30T15:36:05.828Z,6.64
2023-08-30T15:37:46.362Z,7.10
2023-08-30T15:39:20.216Z,6.95
2023-08-30T15:40:53.780Z,7.22
2023-08-30T15:42:29.865Z,7.75
2023-08-30T15:44:10.974Z,7.11
2023-08-30T15:45:46.166Z,7.48
2023-08-30T15:47:22.417Z,7.46
2023-08-30T15:48:55.978Z,7.36
2023-08-30T15:50:29.593Z,7.71
2023-08-30T15:52:03.053Z,7.04
2023-08-30T15:53:50.981Z,7.52
2023-08-30T15:55:40.860Z,6.97
2023-08-30T15:57:28.370Z,7.35
2023-08-30T15:58:52.082Z,7.50
2023-08-30T16:00:22.069Z,7.87
2023-08-30T16:01:58.119Z,7.96
2023-08-30T16:03:49.298Z,8.09
2023-08-30T16:05:34.549Z,7.89
2023-08-30T16:07:16.242Z,7.99
2023-08-30T16:08:51.659Z,7.85
2023-08-30T16:10:39.579Z,8.37
2023-08-30T16:12:09.207Z,7.64
2023-08-30T16:13:44.854Z,7.87
2023-08-30T16:15:34.165Z,7.87
2023-08-30T16:17:07.900Z,7.15
2023-08-30T16:18:36.910Z,7.25
2023-08-30T16:20:11.508Z,7.69
2023-08-30T16:21:56.469Z,8.33
2023-08-30T16:23:49.688Z,7.80
2023-08-30T16:25:16.271Z,8.20
2023-08-30T16:27:01.025Z,8.18
2023-08-30T16:28:53.339Z,8.03
2023-08-30T16:30:17.627Z,7.66
2023-08-30T16:31:57.870Z,7.70
2023-08-30T16:33:33.193Z,7.23
2023-08-30T16:34:55.144Z,7.14
2023-08-30T16:36:41.208Z,7.49
2023-08-30T16:38:17.778Z,8.09
2023-08-30T16:39:48.638Z,8.29
2023-08-30T16:41:22.306Z,8.43
2023-08-30T16:43:07.101Z,8.36
2023-08-30T16:45:00.604Z,7.17
2023-08-30T16:46:37.671Z,7.57
2023-08-30T16:48:13.318Z,6.29
2023-08-30T16:49:58.562Z,6.76
2023-08-30T16:51:32.067Z,6.82
2023-08-30T16:53:14.755Z,7.04
2023-08-30T16:54:47.884Z,6.93
2023-08-30T16:56:27.708Z,6.69
2023-08-30T16:57:52.349Z,6.35
2023-08-30T16:59:28.257Z,6.29
2023-08-30T17:00:56.963Z,6.11
2023-08-30T17:02:44.221Z,5.89
2023-08-30T17:04:18.180Z,6.81
2023-08-30T17:06:03.863Z,6.52
2023-08-30T17:07:48.932Z,5.72
2023-08-30T17:09:24.886Z,6.31
2023-08-30T17:11:00.276Z,5.77
2023-08-30T17:12:38.329Z,5.76
2023-08-30T17:14:12.558Z,5.11
2023-08-30T17:15:34.477Z,5.46
2023-08-30T17:17:15.368Z,5.01
2023-08-30T17:19:00.184Z,5.49
2023-08-30T17:20:41.285Z,5.53
2023-08-30T17:22:13.347Z,5.71
2023-08-30T17:23:46.529Z,6.06
2023-08-30T17:25:13.123Z,6.60
2023-08-30T17:26:58.315Z,6.38
2023-08-30T17:28:34.465Z,6.32
2023-08-30T17:30:19.854Z,6.40
2023-08-30T17:31:55.967Z,6.33
2023-08-30T17:33:32.085Z,6.65
2023-08-30T17:35:13.225Z,6.66
2023-08-30T17:37:00.164Z,7.69
2023-08-30T17:38:40.683Z,6.75
2023-08-30T17:40:06.101Z,6.90
2023-08-30T17:41:35.004Z,6.49
2023-08-30T17:43:04.296Z,6.55
2023-08-30T17:44:59.797Z,6.37
2023-08-30T17:46:50.285Z,6.92
2023-08-30T17:48:24.159Z,7.27
2023-08-30T17:49:53.204Z,7.10
2023-08-30T17:51:29.118Z,7.13
2023-08-30T17:53:05.129Z,7.43
2023-08-30T17:54:38.432Z,6.71
2023-08-30T17:56:33.251Z,7.17
2023-08-30T17:58:09.115Z,6.98
2023-08-30T17:59:54.261Z,6.74
2023-08-30T18:01:28.127Z,7.27
2023-08-30T18:03:22.545Z,7.50
2023-08-30T18:04:56.198Z,7.23
2023-08-30T18:06:41.395Z,7.76
2023-08-30T18:08:23.196Z,7.44
2023-08-30T18:09:56.822Z,7.53
2023-08-30T18:11:37.092Z,6.59
2023-08-30T18:13:22.617Z,6.34
2023-08-30T18:14:53.585Z,6.25
2023-08-30T18:16:15.958Z,6.87
2023-08-30T18:17:51.450Z,6.89
2023-08-30T18:19:37.168Z,7.15
2023-08-30T18:21:11.038Z,6.99
2023-08-30T18:22:44.405Z,6.86
2023-08-30T18:24:09.100Z,6.39
2023-08-30T18:25:42.302Z,6.60
2023-08-30T18:27:18.502Z,6.52
2023-08-30T18:29:03.442Z,6.83
2023-08-30T18:30:37.235Z,6.47
2023-08-30T18:32:18.928Z,7.59
2023-08-30T18:33:55.093Z,6.49
2023-08-30T18:35:24.679Z,7.21
2023-08-30T18:37:05.538Z,7.57
2023-08-30T18:38:41.712Z,6.47
2023-08-30T18:40:21.197Z,7.17
2023-08-30T18:41:43.058Z,6.47
2023-08-30T18:43:24.079Z,6.47
2023-08-30T18:44:47.733Z,7.25
2023-08-30T18:46:23.709Z,6.95
2023-08-30T18:47:57.040Z,7.30
2023-08-30T18:49:41.927Z,7.13
2023-08-30T18:51:18.120Z,7.11
2023-08-30T18:52:52.033Z,7.20
2023-08-30T18:54:14.442Z,6.64
2023-08-30T18:55:38.431Z,6.75
2023-08-30T18:57:02.908Z,6.90
2023-08-30T18:58:36.431Z,6.45
2023-08-30T19:00:05.406Z,6.80
2023-08-30T19:01:38.936Z,7.10
2023-08-30T19:03:16.354Z,6.92
2023-08-30T19:04:59.266Z,7.25
2023-08-30T19:06:33.095Z,7.44
2023-08-30T19:08:18.736Z,6.67
2023-08-30T19:09:54.115Z,6.17
2023-08-30T19:11:34.990Z,6.09
2023-08-30T19:13:11.402Z,5.77
2023-08-30T19:14:37.481Z,5.43
2023-08-30T19:16:22.798Z,5.98
2023-08-30T19:17:58.436Z,5.30
2023-08-30T19:19:34.261Z,5.59
2023-08-30T19:21:20.336Z,5.53
2023-08-30T19:23:00.843Z,5.19
2023-08-30T19:24:48.696Z,5.28
2023-08-30T19:26:33.759Z,4.91
2023-08-30T19:28:07.001Z,5.16
2023-08-30T19:29:28.929Z,5.78
2023-08-30T19:30:55.062Z,4.93
2023-08-30T19:32:40.180Z,5.05
2023-08-30T19:34:11.887Z,5.05
2023-08-30T19:35:43.223Z,5.48
2023-08-30T19:37:33.592Z,5.40
2023-08-30T19:39:09.072Z,5.41
2023-08-30T19:40:53.594Z,4.70
2023-08-30T19:42:29.152Z,4.97
2023-08-30T19:44:04.932Z,5.08
2023-08-30T19:45:31.710Z,4.71
2023-08-30T19:47:07.234Z,5.43
2023-08-30T19:49:01.181Z,5.42
2023-08-30T19:50:42.039Z,4.59
2023-08-30T19:52:19.098Z,4.38
2023-08-30T19:54:04.569Z,4.55
2023-08-30T19:55:40.358Z,4.10
2023-08-30T19:57:18.105Z,4.40
2023-08-30T19:58:44.247Z,4.62
2023-08-30T20:00:25.438Z,4.63
2023-08-30T20:02:04.120Z,4.96
2023-08-30T20:03:44.913Z,5.08
2023-08-30T20:05:30.488Z,4.29
2023-08-30T20:06:54.280Z,3.96
2023-08-30T20:08:18.858Z,4.50
2023-08-30T20:10:04.353Z,4.39
2023-08-30T20:11:38.127Z,4.69
2023-08-30T20:13:18.764Z,4.54
2023-08-30T20:14:59.821Z,5.00
2023-08-30T20:16:21.974Z,4.64
2023-08-30T20:18:07.120Z,5.02
2023-08-30T20:19:28.967Z,4.94
2023-08-30T20:21:06.281Z,5.00
2023-08-30T20:22:45.905Z,4.81
2023-08-30T20:24:27.244Z,4.73
2023-08-30T20:26:15.327Z,4.86
2023-08-30T20:27:56.058Z,5.13
2023-08-30T20:29:32.051Z,5.15
2023-08-30T20:30:53.690Z,4.97
2023-08-30T20:32:27.695Z,5.32
2023-08-30T20:33:59.723Z,5.39
2023-08-30T20:35:22.335Z,5.42
2023-08-30T20:36:53.544Z,5.91
2023-08-30T20:38:18.326Z,5.33
2023-08-30T20:39:52.454Z,4.95
2023-08-30T20:41:34.975Z,5.34
2023-08-30T20:43:04.092Z,5.13
2023-08-30T20:44:45.744Z,5.19
2023-08-30T20:46:20.970Z,6.70
2023-08-30T20:47:42.913Z,6.38
2023-08-30T20:49:16.964Z,6.22
2023-08-30T20:50:38.776Z,6.68
2023-08-30T20:52:12.748Z,6.61
2023-08-30T20:53:57.563Z,6.17
2023-08-30T20:55:39.727Z,6.66
2023-08-30T20:57:21.762Z,6.84
2023-08-30T20:59:08.053Z,6.98
2023-08-30T21:00:41.241Z,7.12
2023-08-30T21:02:26.562Z,7.29
2023-08-30T21:03:59.854Z,7.49
2023-08-30T21:05:22.086Z,7.80
2023-08-30T21:06:53.576Z,7.77
2023-08-30T21:08:29.581Z,8.38
2023-08-30T21:09:51.372Z,7.27
2023-08-30T21:11:32.456Z,7.82
2023-08-30T21:13:05.289Z,9.22
2023-08-30T21:14:33.433Z,8.37
2023-08-30T21:16:03.218Z,9.43
2023-08-30T21:17:35.157Z,9.41
2023-08-30T21:19:12.655Z,9.42
2023-08-30T21:20:53.378Z,8.31
2023-08-30T21:22:18.108Z,9.27
2023-08-30T21:23:42.316Z,8.81
2023-08-30T21:25:18.760Z,8.92
2023-08-30T21:26:59.486Z,9.84
2023-08-30T21:28:41.288Z,9.97
2023-08-30T21:30:15.388Z,10.07
2023-08-30T21:31:56.078Z,9.19
2023-08-30T21:33:41.410Z,8.81
2023-08-30T21:35:11.173Z,9.24
2023-08-30T21:36:40.101Z,9.45
2023-08-30T21:38:09.763Z,9.83
2023-08-30T21:39:50.196Z,9.32
2023-08-30T21:41:22.014Z,9.59
2023-08-30T21:42:55.094Z,9.68
2023-08-30T21:44:36.186Z,10.44
2023-08-30T21:46:10.001Z,9.74
2023-08-30T21:47:55.031Z,10.13
2023-08-30T21:51:51.029Z,8.97
2023-08-30T21:53:24.725Z,9.58
2023-08-30T21:55:09.675Z,8.84
2023-08-30T21:56:38.704Z,9.38
2023-08-30T21:58:24.289Z,9.45